sensor_id;sensor_type;location;lat;lon;timestamp;P1;P2;P0
81998;PMS5003;71598;46.516;-122.928;2024-03-02T00:00:44;32;31;
81998;PMS5003;71598;46.516;-122.928;2024-03-02T00:03:11;31;31;
81998;PMS5003;71598;46.516;-122.928;2024-03-02T00:05:35;36;33;
81998;PMS5003;71598;46.516;-122.928;2024-03-02T00:08:00;29;29;
81998;PMS5003;71598;46.516;-122.928;2024-03-02T00:10:26;30;29;
81998;PMS5003;71598;46.516;-122.928;2024-03-02T00:12:51;34;33;
81998;PMS5003;71598;46.516;-122.928;2024-03-02T00:15:25;36;35;
81998;PMS5003;71598;46.516;-122.928;2024-03-02T00:17:43;31;31;
81998;PMS5003;71598;46.516;-122.928;2024-03-02T00:20:09;34;34;
81998;PMS5003;71598;46.516;-122.928;2024-03-02T00:22:35;32;32;
81998;PMS5003;71598;46.516;-122.928;2024-03-02T00:24:59;32;31;
81998;PMS5003;71598;46.516;-122.928;2024-03-02T00:27:24;30;29;
81998;PMS5003;71598;46.516;-122.928;2024-03-02T00:29:49;34;34;
81998;PMS5003;71598;46.516;-122.928;2024-03-02T00:32:15;33;32;
81998;PMS5003;71598;46.516;-122.928;2024-03-02T00:34:40;30;30;
81998;PMS5003;71598;46.516;-122.928;2024-03-02T00:37:05;36;35;
81998;PMS5003;71598;46.516;-122.928;2024-03-02T00:39:30;37;35;
81998;PMS5003;71598;46.516;-122.928;2024-03-02T00:41:56;37;36;
81998;PMS5003;71598;46.516;-122.928;2024-03-02T00:44:22;37;36;
81998;PMS5003;71598;46.516;-122.928;2024-03-02T00:46:46;37;37;
81998;PMS5003;71598;46.516;-122.928;2024-03-02T00:49:15;34;33;
81998;PMS5003;71598;46.516;-122.928;2024-03-02T00:51:38;34;34;
81998;PMS5003;71598;46.516;-122.928;2024-03-02T00:54:03;37;36;
81998;PMS5003;71598;46.516;-122.928;2024-03-02T00:56:28;30;29;
81998;PMS5003;71598;46.516;-122.928;2024-03-02T00:58:53;37;36;
81998;PMS5003;71598;46.516;-122.928;2024-03-02T01:01:19;34;34;
81998;PMS5003;71598;46.516;-122.928;2024-03-02T01:03:45;39;38;
81998;PMS5003;71598;46.516;-122.928;2024-03-02T01:06:10;42;42;
81998;PMS5003;71598;46.516;-122.928;2024-03-02T01:08:36;37;37;
81998;PMS5003;71598;46.516;-122.928;2024-03-02T01:11:00;40;36;
81998;PMS5003;71598;46.516;-122.928;2024-03-02T01:13:27;38;37;
81998;PMS5003;71598;46.516;-122.928;2024-03-02T01:15:51;35;33;
81998;PMS5003;71598;46.516;-122.928;2024-03-02T01:18:17;38;38;
81998;PMS5003;71598;46.516;-122.928;2024-03-02T01:20:42;35;34;
81998;PMS5003;71598;46.516;-122.928;2024-03-02T01:23:08;36;36;
81998;PMS5003;71598;46.516;-122.928;2024-03-02T01:25:33;42;39;
81998;PMS5003;71598;46.516;-122.928;2024-03-02T01:27:58;37;36;
81998;PMS5003;71598;46.516;-122.928;2024-03-02T01:30:24;37;36;
81998;PMS5003;71598;46.516;-122.928;2024-03-02T01:32:49;35;34;
81998;PMS5003;71598;46.516;-122.928;2024-03-02T01:35:15;34;34;
81998;PMS5003;71598;46.516;-122.928;2024-03-02T01:37:39;39;38;
81998;PMS5003;71598;46.516;-122.928;2024-03-02T01:40:06;39;39;
81998;PMS5003;71598;46.516;-122.928;2024-03-02T01:42:30;36;34;
81998;PMS5003;71598;46.516;-122.928;2024-03-02T01:44:56;36;36;
81998;PMS5003;71598;46.516;-122.928;2024-03-02T01:47:20;38;37;
81998;PMS5003;71598;46.516;-122.928;2024-03-02T01:49:46;40;39;
81998;PMS5003;71598;46.516;-122.928;2024-03-02T01:52:12;41;39;
81998;PMS5003;71598;46.516;-122.928;2024-03-02T01:54:37;37;35;
81998;PMS5003;71598;46.516;-122.928;2024-03-02T01:57:02;42;42;
81998;PMS5003;71598;46.516;-122.928;2024-03-02T01:59:27;43;40;
81998;PMS5003;71598;46.516;-122.928;2024-03-02T02:01:53;42;41;
81998;PMS5003;71598;46.516;-122.928;2024-03-02T02:04:19;39;37;
81998;PMS5003;71598;46.516;-122.928;2024-03-02T02:06:44;39;38;
81998;PMS5003;71598;46.516;-122.928;2024-03-02T02:09:12;41;39;
81998;PMS5003;71598;46.516;-122.928;2024-03-02T02:11:35;42;42;
81998;PMS5003;71598;46.516;-122.928;2024-03-02T02:13:59;44;44;
81998;PMS5003;71598;46.516;-122.928;2024-03-02T02:16:25;42;42;
81998;PMS5003;71598;46.516;-122.928;2024-03-02T02:18:50;45;43;
81998;PMS5003;71598;46.516;-122.928;2024-03-02T02:21:15;37;36;
81998;PMS5003;71598;46.516;-122.928;2024-03-02T02:23:41;45;44;
81998;PMS5003;71598;46.516;-122.928;2024-03-02T02:26:06;46;42;
81998;PMS5003;71598;46.516;-122.928;2024-03-02T02:28:32;42;40;
81998;PMS5003;71598;46.516;-122.928;2024-03-02T02:30:58;40;40;
81998;PMS5003;71598;46.516;-122.928;2024-03-02T02:33:23;45;43;
81998;PMS5003;71598;46.516;-122.928;2024-03-02T02:35:49;38;38;
81998;PMS5003;71598;46.516;-122.928;2024-03-02T02:38:14;42;41;
81998;PMS5003;71598;46.516;-122.928;2024-03-02T02:40:40;43;42;
81998;PMS5003;71598;46.516;-122.928;2024-03-02T02:43:06;38;38;
81998;PMS5003;71598;46.516;-122.928;2024-03-02T02:45:35;38;35;
81998;PMS5003;71598;46.516;-122.928;2024-03-02T02:47:57;43;40;
81998;PMS5003;71598;46.516;-122.928;2024-03-02T02:50:22;41;39;
81998;PMS5003;71598;46.516;-122.928;2024-03-02T02:52:48;43;39;
81998;PMS5003;71598;46.516;-122.928;2024-03-02T02:55:13;41;39;
81998;PMS5003;71598;46.516;-122.928;2024-03-02T02:57:40;46;42;
81998;PMS5003;71598;46.516;-122.928;2024-03-02T03:00:05;35;35;
81998;PMS5003;71598;46.516;-122.928;2024-03-02T03:02:30;36;34;
81998;PMS5003;71598;46.516;-122.928;2024-03-02T03:04:55;43;39;
81998;PMS5003;71598;46.516;-122.928;2024-03-02T03:07:21;38;37;
81998;PMS5003;71598;46.516;-122.928;2024-03-02T03:09:46;38;36;
81998;PMS5003;71598;46.516;-122.928;2024-03-02T03:12:13;43;41;
81998;PMS5003;71598;46.516;-122.928;2024-03-02T03:14:37;39;38;
81998;PMS5003;71598;46.516;-122.928;2024-03-02T03:17:02;41;40;
81998;PMS5003;71598;46.516;-122.928;2024-03-02T03:19:27;34;34;
81998;PMS5003;71598;46.516;-122.928;2024-03-02T03:21:52;39;36;
81998;PMS5003;71598;46.516;-122.928;2024-03-02T03:24:18;37;34;
81998;PMS5003;71598;46.516;-122.928;2024-03-02T03:26:43;39;37;
81998;PMS5003;71598;46.516;-122.928;2024-03-02T03:29:09;39;39;
81998;PMS5003;71598;46.516;-122.928;2024-03-02T03:31:34;42;39;
81998;PMS5003;71598;46.516;-122.928;2024-03-02T03:34:00;37;35;
81998;PMS5003;71598;46.516;-122.928;2024-03-02T03:36:26;34;33;
81998;PMS5003;71598;46.516;-122.928;2024-03-02T03:38:51;36;35;
81998;PMS5003;71598;46.516;-122.928;2024-03-02T03:41:16;33;31;
81998;PMS5003;71598;46.516;-122.928;2024-03-02T03:43:42;40;38;
81998;PMS5003;71598;46.516;-122.928;2024-03-02T03:46:08;36;35;
81998;PMS5003;71598;46.516;-122.928;2024-03-02T03:48:33;35;33;
81998;PMS5003;71598;46.516;-122.928;2024-03-02T03:50:58;34;34;
81998;PMS5003;71598;46.516;-122.928;2024-03-02T03:53:24;33;31;
81998;PMS5003;71598;46.516;-122.928;2024-03-02T03:55:49;39;37;
81998;PMS5003;71598;46.516;-122.928;2024-03-02T03:58:15;37;36;
81998;PMS5003;71598;46.516;-122.928;2024-03-02T04:00:40;37;35;
81998;PMS5003;71598;46.516;-122.928;2024-03-02T04:03:06;33;32;
81998;PMS5003;71598;46.516;-122.928;2024-03-02T04:05:32;39;35;
81998;PMS5003;71598;46.516;-122.928;2024-03-02T04:07:58;34;34;
81998;PMS5003;71598;46.516;-122.928;2024-03-02T04:10:24;31;30;
81998;PMS5003;71598;46.516;-122.928;2024-03-02T04:12:49;31;31;
81998;PMS5003;71598;46.516;-122.928;2024-03-02T04:15:14;34;34;
81998;PMS5003;71598;46.516;-122.928;2024-03-02T04:17:39;41;38;
81998;PMS5003;71598;46.516;-122.928;2024-03-02T04:20:05;35;35;
81998;PMS5003;71598;46.516;-122.928;2024-03-02T04:22:30;33;32;
81998;PMS5003;71598;46.516;-122.928;2024-03-02T04:24:56;32;30;
81998;PMS5003;71598;46.516;-122.928;2024-03-02T04:27:22;34;33;
81998;PMS5003;71598;46.516;-122.928;2024-03-02T04:29:47;35;34;
81998;PMS5003;71598;46.516;-122.928;2024-03-02T04:32:13;38;38;
81998;PMS5003;71598;46.516;-122.928;2024-03-02T04:34:38;36;34;
81998;PMS5003;71598;46.516;-122.928;2024-03-02T04:37:04;30;30;
81998;PMS5003;71598;46.516;-122.928;2024-03-02T04:39:29;39;36;
81998;PMS5003;71598;46.516;-122.928;2024-03-02T04:41:55;33;31;
81998;PMS5003;71598;46.516;-122.928;2024-03-02T04:44:21;28;27;
81998;PMS5003;71598;46.516;-122.928;2024-03-02T04:46:47;30;30;
81998;PMS5003;71598;46.516;-122.928;2024-03-02T04:49:12;30;28;
81998;PMS5003;71598;46.516;-122.928;2024-03-02T04:51:38;29;29;
81998;PMS5003;71598;46.516;-122.928;2024-03-02T04:54:03;30;28;
81998;PMS5003;71598;46.516;-122.928;2024-03-02T04:56:28;33;31;
81998;PMS5003;71598;46.516;-122.928;2024-03-02T04:58:53;34;32;
81998;PMS5003;71598;46.516;-122.928;2024-03-02T05:01:19;35;31;
81998;PMS5003;71598;46.516;-122.928;2024-03-02T05:03:44;35;33;
81998;PMS5003;71598;46.516;-122.928;2024-03-02T05:06:10;33;30;
81998;PMS5003;71598;46.516;-122.928;2024-03-02T05:08:36;33;32;
81998;PMS5003;71598;46.516;-122.928;2024-03-02T05:11:01;32;31;
81998;PMS5003;71598;46.516;-122.928;2024-03-02T05:13:26;30;30;
81998;PMS5003;71598;46.516;-122.928;2024-03-02T05:15:52;34;33;
81998;PMS5003;71598;46.516;-122.928;2024-03-02T05:18:19;27;27;
81998;PMS5003;71598;46.516;-122.928;2024-03-02T05:20:43;31;30;
81998;PMS5003;71598;46.516;-122.928;2024-03-02T05:23:09;32;32;
81998;PMS5003;71598;46.516;-122.928;2024-03-02T05:25:34;38;34;
81998;PMS5003;71598;46.516;-122.928;2024-03-02T05:27:59;33;32;
81998;PMS5003;71598;46.516;-122.928;2024-03-02T05:30:24;28;27;
81998;PMS5003;71598;46.516;-122.928;2024-03-02T05:32:50;35;32;
81998;PMS5003;71598;46.516;-122.928;2024-03-02T05:35:15;32;30;
81998;PMS5003;71598;46.516;-122.928;2024-03-02T05:37:40;32;31;
81998;PMS5003;71598;46.516;-122.928;2024-03-02T05:40:06;37;33;
81998;PMS5003;71598;46.516;-122.928;2024-03-02T05:42:31;33;31;
81998;PMS5003;71598;46.516;-122.928;2024-03-02T05:44:56;33;30;
81998;PMS5003;71598;46.516;-122.928;2024-03-02T05:47:22;40;39;
81998;PMS5003;71598;46.516;-122.928;2024-03-02T05:49:47;33;32;
81998;PMS5003;71598;46.516;-122.928;2024-03-02T05:52:13;32;32;
81998;PMS5003;71598;46.516;-122.928;2024-03-02T05:54:39;34;33;
81998;PMS5003;71598;46.516;-122.928;2024-03-02T05:57:04;34;34;
81998;PMS5003;71598;46.516;-122.928;2024-03-02T05:59:30;35;32;
81998;PMS5003;71598;46.516;-122.928;2024-03-02T06:01:55;35;34;
81998;PMS5003;71598;46.516;-122.928;2024-03-02T06:04:20;33;31;
81998;PMS5003;71598;46.516;-122.928;2024-03-02T06:06:45;31;31;
81998;PMS5003;71598;46.516;-122.928;2024-03-02T06:09:11;29;29;
81998;PMS5003;71598;46.516;-122.928;2024-03-02T06:11:37;30;29;
81998;PMS5003;71598;46.516;-122.928;2024-03-02T06:14:02;30;30;
81998;PMS5003;71598;46.516;-122.928;2024-03-02T06:16:28;32;31;
81998;PMS5003;71598;46.516;-122.928;2024-03-02T06:18:53;32;30;
81998;PMS5003;71598;46.516;-122.928;2024-03-02T06:21:18;33;33;
81998;PMS5003;71598;46.516;-122.928;2024-03-02T06:23:44;31;30;
81998;PMS5003;71598;46.516;-122.928;2024-03-02T06:26:10;36;36;
81998;PMS5003;71598;46.516;-122.928;2024-03-02T06:28:36;32;31;
81998;PMS5003;71598;46.516;-122.928;2024-03-02T06:31:02;37;34;
81998;PMS5003;71598;46.516;-122.928;2024-03-02T06:33:27;34;34;
81998;PMS5003;71598;46.516;-122.928;2024-03-02T06:35:52;31;30;
81998;PMS5003;71598;46.516;-122.928;2024-03-02T06:38:18;33;33;
81998;PMS5003;71598;46.516;-122.928;2024-03-02T06:40:43;37;35;
81998;PMS5003;71598;46.516;-122.928;2024-03-02T06:43:09;33;31;
81998;PMS5003;71598;46.516;-122.928;2024-03-02T06:45:34;35;32;
81998;PMS5003;71598;46.516;-122.928;2024-03-02T06:48:01;35;31;
81998;PMS5003;71598;46.516;-122.928;2024-03-02T06:50:25;36;34;
81998;PMS5003;71598;46.516;-122.928;2024-03-02T06:52:50;39;37;
81998;PMS5003;71598;46.516;-122.928;2024-03-02T06:55:17;34;34;
81998;PMS5003;71598;46.516;-122.928;2024-03-02T06:57:41;32;32;
81998;PMS5003;71598;46.516;-122.928;2024-03-02T07:00:07;35;32;
81998;PMS5003;71598;46.516;-122.928;2024-03-02T07:02:32;31;31;
81998;PMS5003;71598;46.516;-122.928;2024-03-02T07:04:58;33;31;
81998;PMS5003;71598;46.516;-122.928;2024-03-02T07:07:23;32;31;
81998;PMS5003;71598;46.516;-122.928;2024-03-02T07:09:49;37;35;
81998;PMS5003;71598;46.516;-122.928;2024-03-02T07:12:14;36;31;
81998;PMS5003;71598;46.516;-122.928;2024-03-02T07:14:40;35;33;
81998;PMS5003;71598;46.516;-122.928;2024-03-02T07:17:06;33;29;
81998;PMS5003;71598;46.516;-122.928;2024-03-02T07:19:31;32;32;
81998;PMS5003;71598;46.516;-122.928;2024-03-02T07:21:57;33;32;
81998;PMS5003;71598;46.516;-122.928;2024-03-02T07:24:23;34;32;
81998;PMS5003;71598;46.516;-122.928;2024-03-02T07:26:47;35;34;
81998;PMS5003;71598;46.516;-122.928;2024-03-02T07:29:13;34;33;
81998;PMS5003;71598;46.516;-122.928;2024-03-02T07:31:39;36;35;
81998;PMS5003;71598;46.516;-122.928;2024-03-02T07:34:04;34;34;
81998;PMS5003;71598;46.516;-122.928;2024-03-02T07:36:29;43;40;
81998;PMS5003;71598;46.516;-122.928;2024-03-02T07:38:55;40;39;
81998;PMS5003;71598;46.516;-122.928;2024-03-02T07:41:20;40;39;
81998;PMS5003;71598;46.516;-122.928;2024-03-02T07:43:46;34;32;
81998;PMS5003;71598;46.516;-122.928;2024-03-02T07:46:11;38;37;
81998;PMS5003;71598;46.516;-122.928;2024-03-02T07:48:37;38;36;
81998;PMS5003;71598;46.516;-122.928;2024-03-02T07:51:03;41;40;
81998;PMS5003;71598;46.516;-122.928;2024-03-02T07:53:28;40;39;
81998;PMS5003;71598;46.516;-122.928;2024-03-02T07:55:54;44;43;
81998;PMS5003;71598;46.516;-122.928;2024-03-02T07:58:19;46;44;
81998;PMS5003;71598;46.516;-122.928;2024-03-02T08:00:44;47;44;
81998;PMS5003;71598;46.516;-122.928;2024-03-02T08:03:10;40;39;
81998;PMS5003;71598;46.516;-122.928;2024-03-02T08:05:36;49;47;
81998;PMS5003;71598;46.516;-122.928;2024-03-02T08:08:01;49;49;
81998;PMS5003;71598;46.516;-122.928;2024-03-02T08:10:27;51;49;
81998;PMS5003;71598;46.516;-122.928;2024-03-02T08:12:52;65;60;
81998;PMS5003;71598;46.516;-122.928;2024-03-02T08:15:17;54;51;
81998;PMS5003;71598;46.516;-122.928;2024-03-02T08:17:44;58;57;
81998;PMS5003;71598;46.516;-122.928;2024-03-02T08:20:11;52;51;
81998;PMS5003;71598;46.516;-122.928;2024-03-02T08:22:35;64;62;
81998;PMS5003;71598;46.516;-122.928;2024-03-02T08:25:01;59;57;
81998;PMS5003;71598;46.516;-122.928;2024-03-02T08:27:26;62;58;
81998;PMS5003;71598;46.516;-122.928;2024-03-02T08:29:52;58;58;
81998;PMS5003;71598;46.516;-122.928;2024-03-02T08:32:18;67;62;
81998;PMS5003;71598;46.516;-122.928;2024-03-02T08:34:43;66;64;
81998;PMS5003;71598;46.516;-122.928;2024-03-02T08:37:09;72;68;
81998;PMS5003;71598;46.516;-122.928;2024-03-02T08:39:34;66;64;
81998;PMS5003;71598;46.516;-122.928;2024-03-02T08:42:00;71;71;
81998;PMS5003;71598;46.516;-122.928;2024-03-02T08:44:25;76;74;
81998;PMS5003;71598;46.516;-122.928;2024-03-02T08:46:50;76;75;
81998;PMS5003;71598;46.516;-122.928;2024-03-02T08:49:16;76;74;
81998;PMS5003;71598;46.516;-122.928;2024-03-02T08:51:41;80;76;
81998;PMS5003;71598;46.516;-122.928;2024-03-02T08:54:07;83;80;
81998;PMS5003;71598;46.516;-122.928;2024-03-02T08:56:33;80;77;
81998;PMS5003;71598;46.516;-122.928;2024-03-02T08:58:58;89;84;
81998;PMS5003;71598;46.516;-122.928;2024-03-02T09:01:24;92;88;
81998;PMS5003;71598;46.516;-122.928;2024-03-02T09:03:49;93;89;
81998;PMS5003;71598;46.516;-122.928;2024-03-02T09:06:15;100;95;
81998;PMS5003;71598;46.516;-122.928;2024-03-02T09:08:40;93;88;
81998;PMS5003;71598;46.516;-122.928;2024-03-02T09:11:06;86;82;
81998;PMS5003;71598;46.516;-122.928;2024-03-02T09:13:32;91;87;
81998;PMS5003;71598;46.516;-122.928;2024-03-02T09:15:57;89;87;
81998;PMS5003;71598;46.516;-122.928;2024-03-02T09:18:22;98;94;
81998;PMS5003;71598;46.516;-122.928;2024-03-02T09:20:47;94;90;
81998;PMS5003;71598;46.516;-122.928;2024-03-02T09:23:13;98;94;
81998;PMS5003;71598;46.516;-122.928;2024-03-02T09:25:40;103;102;
81998;PMS5003;71598;46.516;-122.928;2024-03-02T09:28:04;102;97;
81998;PMS5003;71598;46.516;-122.928;2024-03-02T09:30:29;107;101;
81998;PMS5003;71598;46.516;-122.928;2024-03-02T09:32:55;110;107;
81998;PMS5003;71598;46.516;-122.928;2024-03-02T09:35:21;112;108;
81998;PMS5003;71598;46.516;-122.928;2024-03-02T09:37:46;115;110;
81998;PMS5003;71598;46.516;-122.928;2024-03-02T09:40:12;117;112;
81998;PMS5003;71598;46.516;-122.928;2024-03-02T09:42:37;114;110;
81998;PMS5003;71598;46.516;-122.928;2024-03-02T09:45:02;108;105;
81998;PMS5003;71598;46.516;-122.928;2024-03-02T09:47:28;118;113;
81998;PMS5003;71598;46.516;-122.928;2024-03-02T09:49:53;117;112;
81998;PMS5003;71598;46.516;-122.928;2024-03-02T09:52:18;112;110;
81998;PMS5003;71598;46.516;-122.928;2024-03-02T09:54:43;113;110;
81998;PMS5003;71598;46.516;-122.928;2024-03-02T09:57:11;104;100;
81998;PMS5003;71598;46.516;-122.928;2024-03-02T09:59:35;112;108;
81998;PMS5003;71598;46.516;-122.928;2024-03-02T10:02:00;115;109;
81998;PMS5003;71598;46.516;-122.928;2024-03-02T10:04:26;111;110;
81998;PMS5003;71598;46.516;-122.928;2024-03-02T10:06:51;123;114;
81998;PMS5003;71598;46.516;-122.928;2024-03-02T10:09:19;107;105;
81998;PMS5003;71598;46.516;-122.928;2024-03-02T10:11:42;110;107;
81998;PMS5003;71598;46.516;-122.928;2024-03-02T10:14:08;120;115;
81998;PMS5003;71598;46.516;-122.928;2024-03-02T10:16:32;109;105;
81998;PMS5003;71598;46.516;-122.928;2024-03-02T10:18:57;101;99;
81998;PMS5003;71598;46.516;-122.928;2024-03-02T10:21:25;106;101;
81998;PMS5003;71598;46.516;-122.928;2024-03-02T10:23:48;114;110;
81998;PMS5003;71598;46.516;-122.928;2024-03-02T10:26:16;112;104;
81998;PMS5003;71598;46.516;-122.928;2024-03-02T10:28:42;110;109;
81998;PMS5003;71598;46.516;-122.928;2024-03-02T10:31:05;111;110;
81998;PMS5003;71598;46.516;-122.928;2024-03-02T10:33:30;107;100;
81998;PMS5003;71598;46.516;-122.928;2024-03-02T10:35:55;107;104;
81998;PMS5003;71598;46.516;-122.928;2024-03-02T10:38:21;109;100;
81998;PMS5003;71598;46.516;-122.928;2024-03-02T10:40:47;105;103;
81998;PMS5003;71598;46.516;-122.928;2024-03-02T10:43:12;112;109;
81998;PMS5003;71598;46.516;-122.928;2024-03-02T10:45:37;112;108;
81998;PMS5003;71598;46.516;-122.928;2024-03-02T10:48:02;110;106;
81998;PMS5003;71598;46.516;-122.928;2024-03-02T10:50:29;106;104;
81998;PMS5003;71598;46.516;-122.928;2024-03-02T10:52:53;107;104;
81998;PMS5003;71598;46.516;-122.928;2024-03-02T10:55:19;117;112;
81998;PMS5003;71598;46.516;-122.928;2024-03-02T10:57:49;111;101;
81998;PMS5003;71598;46.516;-122.928;2024-03-02T11:00:12;113;110;
81998;PMS5003;71598;46.516;-122.928;2024-03-02T11:02:35;109;107;
81998;PMS5003;71598;46.516;-122.928;2024-03-02T11:05:01;102;99;
81998;PMS5003;71598;46.516;-122.928;2024-03-02T11:07:27;107;101;
81998;PMS5003;71598;46.516;-122.928;2024-03-02T11:09:53;102;100;
81998;PMS5003;71598;46.516;-122.928;2024-03-02T11:12:19;100;96;
81998;PMS5003;71598;46.516;-122.928;2024-03-02T11:14:43;107;99;
81998;PMS5003;71598;46.516;-122.928;2024-03-02T11:17:09;109;105;
81998;PMS5003;71598;46.516;-122.928;2024-03-02T11:19:35;101;94;
81998;PMS5003;71598;46.516;-122.928;2024-03-02T11:22:00;104;101;
81998;PMS5003;71598;46.516;-122.928;2024-03-02T11:24:29;106;101;
81998;PMS5003;71598;46.516;-122.928;2024-03-02T11:26:51;103;100;
81998;PMS5003;71598;46.516;-122.928;2024-03-02T11:29:21;98;95;
81998;PMS5003;71598;46.516;-122.928;2024-03-02T11:32:05;102;99;
81998;PMS5003;71598;46.516;-122.928;2024-03-02T11:34:17;94;92;
81998;PMS5003;71598;46.516;-122.928;2024-03-02T11:36:32;102;98;
81998;PMS5003;71598;46.516;-122.928;2024-03-02T11:38:58;98;96;
81998;PMS5003;71598;46.516;-122.928;2024-03-02T11:41:23;97;95;
81998;PMS5003;71598;46.516;-122.928;2024-03-02T11:43:48;103;101;
81998;PMS5003;71598;46.516;-122.928;2024-03-02T11:46:14;98;93;
81998;PMS5003;71598;46.516;-122.928;2024-03-02T11:48:39;95;91;
81998;PMS5003;71598;46.516;-122.928;2024-03-02T11:51:06;107;100;
81998;PMS5003;71598;46.516;-122.928;2024-03-02T11:53:31;92;90;
81998;PMS5003;71598;46.516;-122.928;2024-03-02T11:55:58;100;96;
81998;PMS5003;71598;46.516;-122.928;2024-03-02T11:58:23;98;93;
81998;PMS5003;71598;46.516;-122.928;2024-03-02T12:00:50;97;89;
81998;PMS5003;71598;46.516;-122.928;2024-03-02T12:03:13;98;94;
81998;PMS5003;71598;46.516;-122.928;2024-03-02T12:05:39;102;91;
81998;PMS5003;71598;46.516;-122.928;2024-03-02T12:08:04;96;91;
81998;PMS5003;71598;46.516;-122.928;2024-03-02T12:10:30;96;92;
81998;PMS5003;71598;46.516;-122.928;2024-03-02T12:12:56;89;88;
81998;PMS5003;71598;46.516;-122.928;2024-03-02T12:15:22;89;87;
81998;PMS5003;71598;46.516;-122.928;2024-03-02T12:17:47;85;83;
81998;PMS5003;71598;46.516;-122.928;2024-03-02T12:20:12;84;82;
81998;PMS5003;71598;46.516;-122.928;2024-03-02T12:22:38;80;74;
81998;PMS5003;71598;46.516;-122.928;2024-03-02T12:25:03;72;72;
81998;PMS5003;71598;46.516;-122.928;2024-03-02T12:27:28;76;73;
81998;PMS5003;71598;46.516;-122.928;2024-03-02T12:29:53;72;65;
81998;PMS5003;71598;46.516;-122.928;2024-03-02T12:32:19;81;77;
81998;PMS5003;71598;46.516;-122.928;2024-03-02T12:34:46;87;82;
81998;PMS5003;71598;46.516;-122.928;2024-03-02T12:37:12;78;78;
81998;PMS5003;71598;46.516;-122.928;2024-03-02T12:39:35;83;80;
81998;PMS5003;71598;46.516;-122.928;2024-03-02T12:42:02;88;80;
81998;PMS5003;71598;46.516;-122.928;2024-03-02T12:44:26;69;68;
81998;PMS5003;71598;46.516;-122.928;2024-03-02T12:46:52;76;76;
81998;PMS5003;71598;46.516;-122.928;2024-03-02T12:49:17;71;68;
81998;PMS5003;71598;46.516;-122.928;2024-03-02T12:51:44;66;66;
81998;PMS5003;71598;46.516;-122.928;2024-03-02T12:54:08;71;68;
81998;PMS5003;71598;46.516;-122.928;2024-03-02T12:56:33;71;68;
81998;PMS5003;71598;46.516;-122.928;2024-03-02T12:58:59;63;62;
81998;PMS5003;71598;46.516;-122.928;2024-03-02T13:01:24;75;71;
81998;PMS5003;71598;46.516;-122.928;2024-03-02T13:03:50;64;64;
81998;PMS5003;71598;46.516;-122.928;2024-03-02T13:06:16;67;66;
81998;PMS5003;71598;46.516;-122.928;2024-03-02T13:08:41;70;67;
81998;PMS5003;71598;46.516;-122.928;2024-03-02T13:11:07;65;64;
81998;PMS5003;71598;46.516;-122.928;2024-03-02T13:13:32;64;62;
81998;PMS5003;71598;46.516;-122.928;2024-03-02T13:15:58;64;62;
81998;PMS5003;71598;46.516;-122.928;2024-03-02T13:18:23;59;58;
81998;PMS5003;71598;46.516;-122.928;2024-03-02T13:20:49;56;55;
81998;PMS5003;71598;46.516;-122.928;2024-03-02T13:23:15;60;59;
81998;PMS5003;71598;46.516;-122.928;2024-03-02T13:25:40;61;60;
81998;PMS5003;71598;46.516;-122.928;2024-03-02T13:28:06;64;61;
81998;PMS5003;71598;46.516;-122.928;2024-03-02T13:30:31;65;58;
81998;PMS5003;71598;46.516;-122.928;2024-03-02T13:32:57;63;60;
81998;PMS5003;71598;46.516;-122.928;2024-03-02T13:35:22;54;54;
81998;PMS5003;71598;46.516;-122.928;2024-03-02T13:37:48;55;54;
81998;PMS5003;71598;46.516;-122.928;2024-03-02T13:40:13;55;52;
81998;PMS5003;71598;46.516;-122.928;2024-03-02T13:42:43;58;57;
81998;PMS5003;71598;46.516;-122.928;2024-03-02T13:45:09;51;51;
81998;PMS5003;71598;46.516;-122.928;2024-03-02T13:47:34;50;49;
81998;PMS5003;71598;46.516;-122.928;2024-03-02T13:49:59;50;49;
81998;PMS5003;71598;46.516;-122.928;2024-03-02T13:52:25;55;54;
81998;PMS5003;71598;46.516;-122.928;2024-03-02T13:54:50;49;49;
81998;PMS5003;71598;46.516;-122.928;2024-03-02T13:57:16;49;49;
81998;PMS5003;71598;46.516;-122.928;2024-03-02T13:59:42;46;42;
81998;PMS5003;71598;46.516;-122.928;2024-03-02T14:02:07;55;51;
81998;PMS5003;71598;46.516;-122.928;2024-03-02T14:04:32;53;50;
81998;PMS5003;71598;46.516;-122.928;2024-03-02T14:06:57;49;48;
81998;PMS5003;71598;46.516;-122.928;2024-03-02T14:09:23;49;48;
81998;PMS5003;71598;46.516;-122.928;2024-03-02T14:11:49;51;50;
81998;PMS5003;71598;46.516;-122.928;2024-03-02T14:14:14;47;46;
81998;PMS5003;71598;46.516;-122.928;2024-03-02T14:16:40;44;44;
81998;PMS5003;71598;46.516;-122.928;2024-03-02T14:19:05;42;40;
81998;PMS5003;71598;46.516;-122.928;2024-03-02T14:21:30;46;45;
81998;PMS5003;71598;46.516;-122.928;2024-03-02T14:23:56;41;39;
81998;PMS5003;71598;46.516;-122.928;2024-03-02T14:26:21;47;44;
81998;PMS5003;71598;46.516;-122.928;2024-03-02T14:28:47;40;38;
81998;PMS5003;71598;46.516;-122.928;2024-03-02T14:31:11;43;41;
81998;PMS5003;71598;46.516;-122.928;2024-03-02T14:33:38;40;39;
81998;PMS5003;71598;46.516;-122.928;2024-03-02T14:36:03;37;35;
81998;PMS5003;71598;46.516;-122.928;2024-03-02T14:38:28;38;37;
81998;PMS5003;71598;46.516;-122.928;2024-03-02T14:40:54;39;37;
81998;PMS5003;71598;46.516;-122.928;2024-03-02T14:43:20;34;34;
81998;PMS5003;71598;46.516;-122.928;2024-03-02T14:45:45;35;34;
81998;PMS5003;71598;46.516;-122.928;2024-03-02T14:48:11;33;32;
81998;PMS5003;71598;46.516;-122.928;2024-03-02T14:50:36;34;33;
81998;PMS5003;71598;46.516;-122.928;2024-03-02T14:53:03;38;38;
81998;PMS5003;71598;46.516;-122.928;2024-03-02T14:55:27;35;34;
81998;PMS5003;71598;46.516;-122.928;2024-03-02T14:57:53;32;31;
81998;PMS5003;71598;46.516;-122.928;2024-03-02T15:00:19;32;31;
81998;PMS5003;71598;46.516;-122.928;2024-03-02T15:02:44;33;30;
81998;PMS5003;71598;46.516;-122.928;2024-03-02T15:05:09;30;29;
81998;PMS5003;71598;46.516;-122.928;2024-03-02T15:07:35;28;27;
81998;PMS5003;71598;46.516;-122.928;2024-03-02T15:10:01;33;33;
81998;PMS5003;71598;46.516;-122.928;2024-03-02T15:12:26;31;30;
81998;PMS5003;71598;46.516;-122.928;2024-03-02T15:14:51;30;29;